Wayne Center, Indiana
Current Conditions -  °F | °C
As of 6:35 PM on Monday 20 Oct 2014 (Local Time) from KGWB Reporting Station
Overcast Overcast  
Wind Chill: 57°   Ceiling: 6000
Heat Index: 57°   Visibility: 10mi
Dew Point: 46°   Wind: 6mph
Humidity: 67%   Direction: 340°NNW
Pressure: 29.85"   Gusts: NA
Location:  41.4608°N, 85.2531°W
Report Text: KGWB 202235Z AUTO 34005KT 10SM SCT030 OVC060 14/08 A2985 RMK AO2 P0001
Loading
Personal Weather Stations






























Interactive Weather Map
Tropical Storm Tracking
New forecast layout! Learn more

10-Day Weather Forecast

Advertisements
Track Severe Weather on mobile